sensor_id;sensor_type;location;lat;lon;timestamp;pressure;altitude;pressure_sealevel;temperature;humidity
84775;BME280;75005;50.966;11.344;2024-03-02T00:00:07;98152.63;;;3.10;90.32
84775;BME280;75005;50.966;11.344;2024-03-02T00:02:42;98143.94;;;2.95;90.64
84775;BME280;75005;50.966;11.344;2024-03-02T00:05:08;98145.53;;;3.04;90.42
84775;BME280;75005;50.966;11.344;2024-03-02T00:07:36;98147.00;;;3.07;90.50
84775;BME280;75005;50.966;11.344;2024-03-02T00:10:08;98149.91;;;3.12;90.41
84775;BME280;75005;50.966;11.344;2024-03-02T00:12:36;98141.72;;;3.16;90.47
84775;BME280;75005;50.966;11.344;2024-03-02T00:15:01;98157.47;;;3.21;89.77
84775;BME280;75005;50.966;11.344;2024-03-02T00:17:29;98148.63;;;3.16;89.86
84775;BME280;75005;50.966;11.344;2024-03-02T00:19:54;98143.81;;;3.21;89.99
84775;BME280;75005;50.966;11.344;2024-03-02T00:22:20;98147.19;;;3.29;89.68
84775;BME280;75005;50.966;11.344;2024-03-02T00:24:45;98141.22;;;3.21;89.80
84775;BME280;75005;50.966;11.344;2024-03-02T00:27:13;98140.41;;;3.12;90.05
84775;BME280;75005;50.966;11.344;2024-03-02T00:29:40;98141.53;;;3.10;90.32
84775;BME280;75005;50.966;11.344;2024-03-02T00:32:13;98143.16;;;3.19;90.22
84775;BME280;75005;50.966;11.344;2024-03-02T00:34:39;98138.16;;;3.42;88.97
84775;BME280;75005;50.966;11.344;2024-03-02T00:37:05;98144.28;;;3.41;89.39
84775;BME280;75005;50.966;11.344;2024-03-02T00:39:31;98134.00;;;3.32;90.12
84775;BME280;75005;50.966;11.344;2024-03-02T00:41:57;98125.66;;;3.22;90.33
84775;BME280;75005;50.966;11.344;2024-03-02T00:44:25;98132.09;;;3.26;90.46
84775;BME280;75005;50.966;11.344;2024-03-02T00:46:52;98130.78;;;3.39;89.85
84775;BME280;75005;50.966;11.344;2024-03-02T00:49:22;98128.69;;;3.42;89.56
84775;BME280;75005;50.966;11.344;2024-03-02T00:51:50;98132.53;;;3.54;89.05
84775;BME280;75005;50.966;11.344;2024-03-02T00:54:19;98142.19;;;3.52;89.20
84775;BME280;75005;50.966;11.344;2024-03-02T00:56:47;98131.75;;;3.46;90.05
84775;BME280;75005;50.966;11.344;2024-03-02T00:59:12;98138.66;;;3.53;90.06
84775;BME280;75005;50.966;11.344;2024-03-02T01:01:38;98136.88;;;3.54;89.54
84775;BME280;75005;50.966;11.344;2024-03-02T01:04:03;98137.53;;;3.56;90.03
84775;BME280;75005;50.966;11.344;2024-03-02T01:06:30;98129.97;;;3.46;90.20
84775;BME280;75005;50.966;11.344;2024-03-02T01:08:55;98140.25;;;3.54;89.44
84775;BME280;75005;50.966;11.344;2024-03-02T01:11:21;98138.31;;;3.56;89.56
84775;BME280;75005;50.966;11.344;2024-03-02T01:13:49;98141.22;;;3.69;89.54
84775;BME280;75005;50.966;11.344;2024-03-02T01:16:15;98130.44;;;3.66;89.17
84775;BME280;75005;50.966;11.344;2024-03-02T01:18:41;98135.91;;;3.55;88.97
84775;BME280;75005;50.966;11.344;2024-03-02T01:21:06;98135.91;;;3.55;89.45
84775;BME280;75005;50.966;11.344;2024-03-02T01:23:32;98134.16;;;3.63;89.30
84775;BME280;75005;50.966;11.344;2024-03-02T01:25:57;98127.72;;;3.59;89.66
84775;BME280;75005;50.966;11.344;2024-03-02T01:28:23;98131.56;;;3.55;89.31
84775;BME280;75005;50.966;11.344;2024-03-02T01:30:48;98127.41;;;3.54;89.54
84775;BME280;75005;50.966;11.344;2024-03-02T01:33:14;98130.78;;;3.47;89.71
84775;BME280;75005;50.966;11.344;2024-03-02T01:35:40;98134.47;;;3.44;90.24
84775;BME280;75005;50.966;11.344;2024-03-02T01:38:05;98131.56;;;3.47;90.21
84775;BME280;75005;50.966;11.344;2024-03-02T01:40:34;98134.47;;;3.44;90.11
84775;BME280;75005;50.966;11.344;2024-03-02T01:42:59;98134.16;;;3.47;90.67
84775;BME280;75005;50.966;11.344;2024-03-02T01:45:25;98133.34;;;3.55;90.18
84775;BME280;75005;50.966;11.344;2024-03-02T01:47:50;98136.06;;;3.53;90.02
84775;BME280;75005;50.966;11.344;2024-03-02T01:50:24;98141.88;;;3.63;90.11
84775;BME280;75005;50.966;11.344;2024-03-02T01:52:50;98136.06;;;3.61;89.79
84775;BME280;75005;50.966;11.344;2024-03-02T01:55:16;98138.97;;;3.66;89.34
84775;BME280;75005;50.966;11.344;2024-03-02T01:57:41;98131.22;;;3.75;89.00
84775;BME280;75005;50.966;11.344;2024-03-02T02:00:08;98134.47;;;3.68;89.91
84775;BME280;75005;50.966;11.344;2024-03-02T02:02:34;98129.66;;;3.65;89.22
84775;BME280;75005;50.966;11.344;2024-03-02T02:05:00;98126.06;;;3.75;89.25
84775;BME280;75005;50.966;11.344;2024-03-02T02:07:25;98130.09;;;3.77;89.78
84775;BME280;75005;50.966;11.344;2024-03-02T02:09:51;98134.59;;;3.75;89.84
84775;BME280;75005;50.966;11.344;2024-03-02T02:12:16;98135.66;;;4.05;88.87
84775;BME280;75005;50.966;11.344;2024-03-02T02:14:48;98127.63;;;4.08;87.46
84775;BME280;75005;50.966;11.344;2024-03-02T02:17:14;98131.03;;;3.84;88.53
84775;BME280;75005;50.966;11.344;2024-03-02T02:19:41;98137.31;;;3.74;89.39
84775;BME280;75005;50.966;11.344;2024-03-02T02:22:06;98126.88;;;3.75;89.21
84775;BME280;75005;50.966;11.344;2024-03-02T02:24:31;98136.66;;;3.88;89.08
84775;BME280;75005;50.966;11.344;2024-03-02T02:26:57;98129.59;;;3.82;89.13
84775;BME280;75005;50.966;11.344;2024-03-02T02:29:22;98139.88;;;3.90;89.22
84775;BME280;75005;50.966;11.344;2024-03-02T02:31:48;98147.91;;;3.95;89.49
84775;BME280;75005;50.966;11.344;2024-03-02T02:34:14;98141.16;;;3.94;89.56
84775;BME280;75005;50.966;11.344;2024-03-02T02:36:40;98150.97;;;3.90;89.99
84775;BME280;75005;50.966;11.344;2024-03-02T02:39:08;98146.97;;;3.88;90.28
84775;BME280;75005;50.966;11.344;2024-03-02T02:41:34;98146.78;;;3.89;90.97
84775;BME280;75005;50.966;11.344;2024-03-02T02:43:59;98151.47;;;3.86;90.25
84775;BME280;75005;50.966;11.344;2024-03-02T02:46:24;98152.59;;;3.75;90.50
84775;BME280;75005;50.966;11.344;2024-03-02T02:48:50;98152.75;;;3.82;90.88
84775;BME280;75005;50.966;11.344;2024-03-02T02:51:18;98155.97;;;3.84;90.94
84775;BME280;75005;50.966;11.344;2024-03-02T02:53:43;98160.00;;;3.86;90.88
84775;BME280;75005;50.966;11.344;2024-03-02T02:56:09;98160.47;;;3.82;91.11
84775;BME280;75005;50.966;11.344;2024-03-02T02:58:34;98153.88;;;3.87;91.11
84775;BME280;75005;50.966;11.344;2024-03-02T03:01:00;98152.91;;;3.88;91.48
84775;BME280;75005;50.966;11.344;2024-03-02T03:03:26;98149.38;;;3.89;91.55
84775;BME280;75005;50.966;11.344;2024-03-02T03:05:51;98146.97;;;3.88;91.41
84775;BME280;75005;50.966;11.344;2024-03-02T03:08:16;98158.22;;;3.95;91.39
84775;BME280;75005;50.966;11.344;2024-03-02T03:10:42;98162.22;;;3.97;91.34
84775;BME280;75005;50.966;11.344;2024-03-02T03:13:08;98170.75;;;3.98;91.96
84775;BME280;75005;50.966;11.344;2024-03-02T03:15:37;98162.56;;;3.94;92.43
84775;BME280;75005;50.966;11.344;2024-03-02T03:18:03;98168.34;;;3.88;92.55
84775;BME280;75005;50.966;11.344;2024-03-02T03:20:29;98168.81;;;3.92;92.26
84775;BME280;75005;50.966;11.344;2024-03-02T03:22:55;98167.72;;;3.86;92.56
84775;BME280;75005;50.966;11.344;2024-03-02T03:25:21;98163.69;;;3.92;92.58
84775;BME280;75005;50.966;11.344;2024-03-02T03:27:46;98156.91;;;4.07;91.91
84775;BME280;75005;50.966;11.344;2024-03-02T03:30:12;98163.47;;;4.10;92.29
84775;BME280;75005;50.966;11.344;2024-03-02T03:32:37;98147.84;;;4.11;92.41
84775;BME280;75005;50.966;11.344;2024-03-02T03:35:04;98141.91;;;4.11;92.97
84775;BME280;75005;50.966;11.344;2024-03-02T03:37:29;98141.09;;;4.10;92.66
84775;BME280;75005;50.966;11.344;2024-03-02T03:40:07;98139.63;;;4.16;92.26
84775;BME280;75005;50.966;11.344;2024-03-02T03:42:38;98139.63;;;4.16;92.26
84775;BME280;75005;50.966;11.344;2024-03-02T03:47:33;98138.50;;;4.18;92.41
84775;BME280;75005;50.966;11.344;2024-03-02T03:49:59;98139.13;;;4.28;91.69
84775;BME280;75005;50.966;11.344;2024-03-02T03:52:24;98135.25;;;4.32;91.70
84775;BME280;75005;50.966;11.344;2024-03-02T03:54:50;98142.81;;;4.34;91.65
84775;BME280;75005;50.966;11.344;2024-03-02T03:57:16;98128.47;;;4.31;92.21
84775;BME280;75005;50.966;11.344;2024-03-02T03:59:41;98128.16;;;4.34;92.55
84775;BME280;75005;50.966;11.344;2024-03-02T04:02:07;98120.25;;;4.36;91.97
84775;BME280;75005;50.966;11.344;2024-03-02T04:04:33;98130.06;;;4.41;91.77
84775;BME280;75005;50.966;11.344;2024-03-02T04:06:58;98118.41;;;4.53;91.86
84775;BME280;75005;50.966;11.344;2024-03-02T04:09:24;98118.06;;;4.56;91.31
84775;BME280;75005;50.966;11.344;2024-03-02T04:11:51;98123.59;;;4.45;92.27
84775;BME280;75005;50.966;11.344;2024-03-02T04:14:16;98121.72;;;4.30;92.43
84775;BME280;75005;50.966;11.344;2024-03-02T04:16:42;98123.06;;;4.49;92.74
84775;BME280;75005;50.966;11.344;2024-03-02T04:19:07;98130.66;;;4.82;90.93
84775;BME280;75005;50.966;11.344;2024-03-02T04:21:33;98122.03;;;4.89;90.19
84775;BME280;75005;50.966;11.344;2024-03-02T04:23:58;98136.72;;;4.89;89.94
84775;BME280;75005;50.966;11.344;2024-03-02T04:26:27;98141.31;;;4.79;90.89
84775;BME280;75005;50.966;11.344;2024-03-02T04:28:53;98136.91;;;4.56;91.99
84775;BME280;75005;50.966;11.344;2024-03-02T04:31:19;98128.28;;;4.41;92.46
84775;BME280;75005;50.966;11.344;2024-03-02T04:33:45;98130.88;;;4.41;93.05
84775;BME280;75005;50.966;11.344;2024-03-02T04:36:10;98142.25;;;4.47;92.98
84775;BME280;75005;50.966;11.344;2024-03-02T04:38:36;98143.50;;;4.59;92.59
84775;BME280;75005;50.966;11.344;2024-03-02T04:41:04;98142.38;;;4.53;92.58
84775;BME280;75005;50.966;11.344;2024-03-02T04:43:31;98138.25;;;4.44;92.90
84775;BME280;75005;50.966;11.344;2024-03-02T04:45:58;98144.81;;;4.47;93.43
84775;BME280;75005;50.966;11.344;2024-03-02T04:48:23;98151.97;;;4.36;93.56
84775;BME280;75005;50.966;11.344;2024-03-02T04:50:49;98152.78;;;4.29;94.51
84775;BME280;75005;50.966;11.344;2024-03-02T04:53:14;98157.16;;;4.20;94.50
84775;BME280;75005;50.966;11.344;2024-03-02T04:55:39;98156.50;;;4.26;94.33
84775;BME280;75005;50.966;11.344;2024-03-02T04:58:05;98150.72;;;4.24;94.09
84775;BME280;75005;50.966;11.344;2024-03-02T05:00:31;98154.41;;;4.30;94.25
84775;BME280;75005;50.966;11.344;2024-03-02T05:02:57;98154.38;;;4.38;94.04
84775;BME280;75005;50.966;11.344;2024-03-02T05:05:22;98153.91;;;4.34;93.69
84775;BME280;75005;50.966;11.344;2024-03-02T05:07:47;98157.44;;;4.33;93.79
84775;BME280;75005;50.966;11.344;2024-03-02T05:10:13;98152.78;;;4.37;93.18
84775;BME280;75005;50.966;11.344;2024-03-02T05:12:39;98150.03;;;4.39;93.96
84775;BME280;75005;50.966;11.344;2024-03-02T05:15:08;98156.78;;;4.40;94.14
84775;BME280;75005;50.966;11.344;2024-03-02T05:17:41;98156.44;;;4.82;93.25
84775;BME280;75005;50.966;11.344;2024-03-02T05:20:10;98159.44;;;4.85;91.99
84775;BME280;75005;50.966;11.344;2024-03-02T05:22:37;98158.28;;;4.65;91.89
84775;BME280;75005;50.966;11.344;2024-03-02T05:25:06;98158.97;;;4.51;92.89
84775;BME280;75005;50.966;11.344;2024-03-02T05:27:32;98157.75;;;4.39;93.54
84775;BME280;75005;50.966;11.344;2024-03-02T05:29:58;98149.41;;;4.28;93.80
84775;BME280;75005;50.966;11.344;2024-03-02T05:32:23;98153.59;;;4.29;93.92
84775;BME280;75005;50.966;11.344;2024-03-02T05:34:49;98154.25;;;4.23;94.18
84775;BME280;75005;50.966;11.344;2024-03-02T05:37:16;98158.72;;;4.38;94.28
84775;BME280;75005;50.966;11.344;2024-03-02T05:39:41;98158.66;;;4.54;93.21
84775;BME280;75005;50.966;11.344;2024-03-02T05:42:08;98157.56;;;4.79;92.57
84775;BME280;75005;50.966;11.344;2024-03-02T05:44:34;98159.28;;;4.87;91.31
84775;BME280;75005;50.966;11.344;2024-03-02T05:47:00;98161.38;;;4.83;91.62
84775;BME280;75005;50.966;11.344;2024-03-02T05:49:25;98162.44;;;4.74;91.69
84775;BME280;75005;50.966;11.344;2024-03-02T05:51:51;98161.97;;;4.70;92.00
84775;BME280;75005;50.966;11.344;2024-03-02T05:54:16;98153.53;;;4.46;92.55
84775;BME280;75005;50.966;11.344;2024-03-02T05:56:41;98160.66;;;4.35;93.14
84775;BME280;75005;50.966;11.344;2024-03-02T05:59:07;98155.56;;;4.19;94.69
84775;BME280;75005;50.966;11.344;2024-03-02T06:01:47;98149.94;;;4.16;95.54
84775;BME280;75005;50.966;11.344;2024-03-02T06:04:13;98168.13;;;4.14;94.56
84775;BME280;75005;50.966;11.344;2024-03-02T06:06:39;98160.72;;;4.11;94.88
84775;BME280;75005;50.966;11.344;2024-03-02T06:09:06;98162.53;;;4.50;93.77
84775;BME280;75005;50.966;11.344;2024-03-02T06:11:35;98164.03;;;4.75;92.61
84775;BME280;75005;50.966;11.344;2024-03-02T06:14:01;98167.63;;;4.66;92.52
84775;BME280;75005;50.966;11.344;2024-03-02T06:16:26;98169.44;;;4.49;93.75
84775;BME280;75005;50.966;11.344;2024-03-02T06:18:52;98171.22;;;4.49;94.15
84775;BME280;75005;50.966;11.344;2024-03-02T06:21:19;98176.03;;;4.52;94.00
84775;BME280;75005;50.966;11.344;2024-03-02T06:23:44;98162.19;;;4.53;94.09
84775;BME280;75005;50.966;11.344;2024-03-02T06:26:10;98170.56;;;4.55;93.56
84775;BME280;75005;50.966;11.344;2024-03-02T06:28:35;98174.25;;;4.60;94.30
84775;BME280;75005;50.966;11.344;2024-03-02T06:31:02;98167.31;;;4.61;93.71
84775;BME280;75005;50.966;11.344;2024-03-02T06:33:27;98167.94;;;4.63;93.60
84775;BME280;75005;50.966;11.344;2024-03-02T06:35:54;98163.25;;;4.66;93.76
84775;BME280;75005;50.966;11.344;2024-03-02T06:38:19;98167.44;;;4.67;93.09
84775;BME280;75005;50.966;11.344;2024-03-02T06:40:45;98178.53;;;4.76;93.36
84775;BME280;75005;50.966;11.344;2024-03-02T06:43:10;98170.97;;;4.97;93.01
84775;BME280;75005;50.966;11.344;2024-03-02T06:45:35;98178.06;;;4.95;92.24
84775;BME280;75005;50.966;11.344;2024-03-02T06:48:01;98178.06;;;4.95;91.95
84775;BME280;75005;50.966;11.344;2024-03-02T06:50:26;98175.50;;;4.95;92.46
84775;BME280;75005;50.966;11.344;2024-03-02T06:52:52;98181.88;;;5.08;91.63
84775;BME280;75005;50.966;11.344;2024-03-02T06:55:17;98182.09;;;5.21;91.37
84775;BME280;75005;50.966;11.344;2024-03-02T06:57:43;98173.13;;;5.40;91.22
84775;BME280;75005;50.966;11.344;2024-03-02T07:00:08;98173.16;;;5.31;90.45
84775;BME280;75005;50.966;11.344;2024-03-02T07:02:35;98180.16;;;5.23;91.79
84775;BME280;75005;50.966;11.344;2024-03-02T07:05:01;98179.59;;;5.13;91.97
84775;BME280;75005;50.966;11.344;2024-03-02T07:07:27;98189.56;;;5.38;91.50
84775;BME280;75005;50.966;11.344;2024-03-02T07:09:52;98192.47;;;5.58;90.94
84775;BME280;75005;50.966;11.344;2024-03-02T07:12:18;98189.38;;;5.63;90.39
84775;BME280;75005;50.966;11.344;2024-03-02T07:14:43;98179.56;;;5.58;90.93
84775;BME280;75005;50.966;11.344;2024-03-02T07:17:36;98172.66;;;5.74;90.45
84775;BME280;75005;50.966;11.344;2024-03-02T07:20:02;98192.63;;;5.80;91.78
84775;BME280;75005;50.966;11.344;2024-03-02T07:22:29;98189.19;;;6.02;90.38
84775;BME280;75005;50.966;11.344;2024-03-02T07:24:54;98193.34;;;6.26;89.73
84775;BME280;75005;50.966;11.344;2024-03-02T07:27:19;98194.66;;;6.36;90.04
84775;BME280;75005;50.966;11.344;2024-03-02T07:29:45;98196.97;;;6.61;88.30
84775;BME280;75005;50.966;11.344;2024-03-02T07:32:10;98191.47;;;6.85;87.69
84775;BME280;75005;50.966;11.344;2024-03-02T07:34:36;98200.66;;;7.02;88.40
84775;BME280;75005;50.966;11.344;2024-03-02T07:37:03;98200.34;;;7.33;87.45
84775;BME280;75005;50.966;11.344;2024-03-02T07:39:29;98207.38;;;7.40;88.23
84775;BME280;75005;50.966;11.344;2024-03-02T07:41:54;98197.38;;;7.79;86.88
84775;BME280;75005;50.966;11.344;2024-03-02T07:44:20;98199.72;;;8.02;84.41
84775;BME280;75005;50.966;11.344;2024-03-02T07:46:46;98201.75;;;8.34;84.43
84775;BME280;75005;50.966;11.344;2024-03-02T07:49:14;98205.88;;;8.63;82.92
84775;BME280;75005;50.966;11.344;2024-03-02T07:51:42;98207.44;;;9.05;81.20
84775;BME280;75005;50.966;11.344;2024-03-02T07:54:08;98211.94;;;9.51;79.72
84775;BME280;75005;50.966;11.344;2024-03-02T07:56:34;98213.34;;;9.60;79.75
84775;BME280;75005;50.966;11.344;2024-03-02T07:59:00;98208.72;;;9.49;80.91
84775;BME280;75005;50.966;11.344;2024-03-02T08:01:31;98221.75;;;9.62;80.92
84775;BME280;75005;50.966;11.344;2024-03-02T08:03:58;98212.94;;;9.77;80.33
84775;BME280;75005;50.966;11.344;2024-03-02T08:06:25;98219.34;;;9.81;78.65
84775;BME280;75005;50.966;11.344;2024-03-02T08:08:56;98209.75;;;9.94;78.65
84775;BME280;75005;50.966;11.344;2024-03-02T08:11:23;98221.53;;;10.10;78.06
84775;BME280;75005;50.966;11.344;2024-03-02T08:13:48;98211.34;;;9.95;78.07
84775;BME280;75005;50.966;11.344;2024-03-02T08:16:15;98210.16;;;10.24;77.67
84775;BME280;75005;50.966;11.344;2024-03-02T08:18:41;98213.34;;;10.40;77.16
84775;BME280;75005;50.966;11.344;2024-03-02T08:21:07;98210.16;;;10.24;79.25
84775;BME280;75005;50.966;11.344;2024-03-02T08:23:33;98213.53;;;10.31;78.59
84775;BME280;75005;50.966;11.344;2024-03-02T08:25:59;98219.94;;;10.22;76.71
84775;BME280;75005;50.966;11.344;2024-03-02T08:28:24;98221.69;;;10.55;75.29
84775;BME280;75005;50.966;11.344;2024-03-02T08:30:50;98223.53;;;10.34;76.20
84775;BME280;75005;50.966;11.344;2024-03-02T08:33:15;98220.69;;;10.56;73.83
84775;BME280;75005;50.966;11.344;2024-03-02T08:35:41;98217.53;;;10.92;73.81
84775;BME280;75005;50.966;11.344;2024-03-02T08:38:06;98223.91;;;11.02;72.87
84775;BME280;75005;50.966;11.344;2024-03-02T08:40:32;98222.00;;;10.78;74.13
84775;BME280;75005;50.966;11.344;2024-03-02T08:42:57;98218.28;;;10.41;74.97
84775;BME280;75005;50.966;11.344;2024-03-02T08:45:22;98219.69;;;10.44;76.78
84775;BME280;75005;50.966;11.344;2024-03-02T08:47:48;98219.47;;;10.65;73.34
84775;BME280;75005;50.966;11.344;2024-03-02T08:50:14;98223.91;;;11.02;72.69
84775;BME280;75005;50.966;11.344;2024-03-02T08:52:39;98216.72;;;11.36;71.28
84775;BME280;75005;50.966;11.344;2024-03-02T08:55:05;98223.72;;;11.04;72.23
84775;BME280;75005;50.966;11.344;2024-03-02T08:57:32;98221.78;;;11.24;72.14
84775;BME280;75005;50.966;11.344;2024-03-02T08:59:57;98234.25;;;11.16;71.86
84775;BME280;75005;50.966;11.344;2024-03-02T09:02:23;98234.16;;;10.97;71.44
84775;BME280;75005;50.966;11.344;2024-03-02T09:04:49;98228.00;;;10.79;71.73
84775;BME280;75005;50.966;11.344;2024-03-02T09:07:14;98232.44;;;10.71;71.74
84775;BME280;75005;50.966;11.344;2024-03-02T09:09:40;98230.03;;;10.77;71.57
84775;BME280;75005;50.966;11.344;2024-03-02T09:12:06;98233.78;;;10.87;70.75
84775;BME280;75005;50.966;11.344;2024-03-02T09:14:32;98231.78;;;10.89;71.12
84775;BME280;75005;50.966;11.344;2024-03-02T09:16:57;98234.75;;;10.93;70.90
84775;BME280;75005;50.966;11.344;2024-03-02T09:19:23;98233.94;;;10.99;71.19
84775;BME280;75005;50.966;11.344;2024-03-02T09:21:48;98230.72;;;11.03;71.50
84775;BME280;75005;50.966;11.344;2024-03-02T09:24:15;98231.00;;;10.82;71.49
84775;BME280;75005;50.966;11.344;2024-03-02T09:26:40;98231.25;;;10.67;71.83
84775;BME280;75005;50.966;11.344;2024-03-02T09:29:06;98234.44;;;10.76;71.69
84775;BME280;75005;50.966;11.344;2024-03-02T09:31:31;98231.31;;;10.41;73.36
84775;BME280;75005;50.966;11.344;2024-03-02T09:33:57;98228.28;;;10.51;72.44
84775;BME280;75005;50.966;11.344;2024-03-02T09:36:22;98231.06;;;10.69;71.43
84775;BME280;75005;50.966;11.344;2024-03-02T09:38:48;98228.19;;;10.84;70.28
84775;BME280;75005;50.966;11.344;2024-03-02T09:41:14;98237.59;;;10.85;70.93
84775;BME280;75005;50.966;11.344;2024-03-02T09:43:40;98228.50;;;11.07;70.73
84775;BME280;75005;50.966;11.344;2024-03-02T09:46:08;98229.91;;;11.41;69.45
84775;BME280;75005;50.966;11.344;2024-03-02T09:48:38;98229.16;;;11.65;68.85
84775;BME280;75005;50.966;11.344;2024-03-02T09:51:04;98227.59;;;11.58;68.69
84775;BME280;75005;50.966;11.344;2024-03-02T09:53:31;98228.88;;;11.80;68.86
84775;BME280;75005;50.966;11.344;2024-03-02T09:55:59;98233.44;;;11.53;69.06
84775;BME280;75005;50.966;11.344;2024-03-02T09:58:24;98227.50;;;11.46;69.78
84775;BME280;75005;50.966;11.344;2024-03-02T10:00:50;98229.09;;;11.72;68.72
84775;BME280;75005;50.966;11.344;2024-03-02T10:03:15;98233.59;;;11.90;67.18
84775;BME280;75005;50.966;11.344;2024-03-02T10:05:43;98226.31;;;12.42;67.18
84775;BME280;75005;50.966;11.344;2024-03-02T10:08:08;98234.88;;;12.05;66.67
84775;BME280;75005;50.966;11.344;2024-03-02T10:10:39;98237.56;;;11.36;68.59
84775;BME280;75005;50.966;11.344;2024-03-02T10:13:13;98231.41;;;11.55;69.18
84775;BME280;75005;50.966;11.344;2024-03-02T10:15:40;98234.59;;;11.89;68.26
84775;BME280;75005;50.966;11.344;2024-03-02T10:18:09;98238.63;;;12.16;65.99
84775;BME280;75005;50.966;11.344;2024-03-02T10:20:36;98229.63;;;12.12;66.02
84775;BME280;75005;50.966;11.344;2024-03-02T10:23:12;98229.34;;;11.95;65.21
84775;BME280;75005;50.966;11.344;2024-03-02T10:25:38;98229.47;;;12.07;66.30
84775;BME280;75005;50.966;11.344;2024-03-02T10:28:04;98231.66;;;12.28;66.30
84775;BME280;75005;50.966;11.344;2024-03-02T10:30:31;98228.81;;;12.12;66.29
84775;BME280;75005;50.966;11.344;2024-03-02T10:32:57;98221.31;;;12.40;65.73
84775;BME280;75005;50.966;11.344;2024-03-02T10:35:23;98230.41;;;12.56;64.97
84775;BME280;75005;50.966;11.344;2024-03-02T10:37:49;98228.28;;;12.46;64.68
84775;BME280;75005;50.966;11.344;2024-03-02T10:40:15;98221.25;;;12.03;66.90
84775;BME280;75005;50.966;11.344;2024-03-02T10:42:42;98226.47;;;12.03;66.43
84775;BME280;75005;50.966;11.344;2024-03-02T10:45:09;98222.59;;;12.31;65.98
84775;BME280;75005;50.966;11.344;2024-03-02T10:47:37;98221.69;;;12.44;64.85
84775;BME280;75005;50.966;11.344;2024-03-02T10:50:04;98223.06;;;12.03;64.92
84775;BME280;75005;50.966;11.344;2024-03-02T10:52:37;98218.97;;;11.89;64.01
84775;BME280;75005;50.966;11.344;2024-03-02T10:55:03;98229.41;;;12.32;64.49
84775;BME280;75005;50.966;11.344;2024-03-02T10:57:53;98224.88;;;12.64;61.85
84775;BME280;75005;50.966;11.344;2024-03-02T11:00:19;98220.19;;;12.11;63.78
84775;BME280;75005;50.966;11.344;2024-03-02T11:02:56;98218.72;;;12.40;62.51
84775;BME280;75005;50.966;11.344;2024-03-02T11:05:31;98222.38;;;12.32;63.02
84775;BME280;75005;50.966;11.344;2024-03-02T11:08:01;98223.59;;;12.12;63.20
84775;BME280;75005;50.966;11.344;2024-03-02T11:10:37;98213.97;;;12.30;62.53
84775;BME280;75005;50.966;11.344;2024-03-02T11:13:05;98217.25;;;12.81;62.69
84775;BME280;75005;50.966;11.344;2024-03-02T11:15:34;98211.34;;;13.03;61.84
84775;BME280;75005;50.966;11.344;2024-03-02T11:18:03;98213.59;;;13.18;61.88
84775;BME280;75005;50.966;11.344;2024-03-02T11:20:31;98203.25;;;12.93;63.17
84775;BME280;75005;50.966;11.344;2024-03-02T11:22:57;98207.03;;;12.97;63.67
84775;BME280;75005;50.966;11.344;2024-03-02T11:25:26;98202.63;;;13.10;63.14
84775;BME280;75005;50.966;11.344;2024-03-02T11:33:24;98201.75;;;13.34;62.34
84775;BME280;75005;50.966;11.344;2024-03-02T11:35:52;98207.75;;;12.86;64.15
84775;BME280;75005;50.966;11.344;2024-03-02T11:38:18;98195.38;;;13.30;63.00
84775;BME280;75005;50.966;11.344;2024-03-02T11:40:44;98199.94;;;13.34;63.06
84775;BME280;75005;50.966;11.344;2024-03-02T11:43:10;98198.66;;;14.02;61.17
84775;BME280;75005;50.966;11.344;2024-03-02T11:45:36;98200.69;;;14.23;58.89
84775;BME280;75005;50.966;11.344;2024-03-02T11:48:05;98182.84;;;14.32;57.88
84775;BME280;75005;50.966;11.344;2024-03-02T11:50:34;98188.75;;;13.81;57.93
84775;BME280;75005;50.966;11.344;2024-03-02T11:53:07;98183.19;;;13.89;56.37
84775;BME280;75005;50.966;11.344;2024-03-02T11:55:37;98185.28;;;13.15;57.97
84775;BME280;75005;50.966;11.344;2024-03-02T11:58:04;98180.66;;;13.17;59.53
84775;BME280;75005;50.966;11.344;2024-03-02T12:00:30;98182.47;;;13.58;58.33
84775;BME280;75005;50.966;11.344;2024-03-02T12:03:04;98186.94;;;13.81;57.29
84775;BME280;75005;50.966;11.344;2024-03-02T12:05:31;98187.19;;;13.38;58.14
84775;BME280;75005;50.966;11.344;2024-03-02T12:07:58;98181.78;;;13.51;57.83
84775;BME280;75005;50.966;11.344;2024-03-02T12:10:24;98179.75;;;13.65;56.89
84775;BME280;75005;50.966;11.344;2024-03-02T12:13:00;98175.66;;;13.57;57.37
84775;BME280;75005;50.966;11.344;2024-03-02T12:15:28;98178.22;;;13.46;56.97
84775;BME280;75005;50.966;11.344;2024-03-02T12:17:54;98159.06;;;13.63;55.44
84775;BME280;75005;50.966;11.344;2024-03-02T12:20:21;98159.97;;;13.81;55.44
84775;BME280;75005;50.966;11.344;2024-03-02T12:22:59;98161.78;;;13.57;52.13
84775;BME280;75005;50.966;11.344;2024-03-02T12:25:25;98159.72;;;13.47;52.85
84775;BME280;75005;50.966;11.344;2024-03-02T12:27:55;98164.97;;;13.82;52.79
84775;BME280;75005;50.966;11.344;2024-03-02T12:30:21;98158.16;;;13.93;52.38
84775;BME280;75005;50.966;11.344;2024-03-02T12:32:47;98148.41;;;14.00;49.79
84775;BME280;75005;50.966;11.344;2024-03-02T12:35:14;98154.06;;;14.20;51.44
84775;BME280;75005;50.966;11.344;2024-03-02T12:37:47;98151.53;;;14.25;50.26
84775;BME280;75005;50.966;11.344;2024-03-02T12:40:13;98148.56;;;14.33;49.52
84775;BME280;75005;50.966;11.344;2024-03-02T12:42:40;98156.13;;;14.07;50.90
84775;BME280;75005;50.966;11.344;2024-03-02T12:45:07;98143.00;;;14.18;52.47
84775;BME280;75005;50.966;11.344;2024-03-02T12:47:34;98142.38;;;14.63;51.84
84775;BME280;75005;50.966;11.344;2024-03-02T12:50:00;98141.91;;;14.66;51.04
84775;BME280;75005;50.966;11.344;2024-03-02T12:52:26;98138.75;;;14.64;50.90
84775;BME280;75005;50.966;11.344;2024-03-02T12:54:51;98139.00;;;14.51;51.08
84775;BME280;75005;50.966;11.344;2024-03-02T12:57:21;98143.41;;;14.62;49.32
84775;BME280;75005;50.966;11.344;2024-03-02T12:59:47;98138.19;;;14.62;50.21
84775;BME280;75005;50.966;11.344;2024-03-02T13:02:19;98134.63;;;14.68;51.40